PFKT

Brevig Mission Airport

Airport
ICAO code
PFKT
IATA Code
KTS
Summary
ICAO Region
NAM
ICAO Territory
Location

, Alaska

Serving
Brevig Mission
Elevation
38 ft
Coordinates
65° 19' 53" N , 166° 27' 57" W
Metar
PFKT 201503Z AUTO 23012KT 10SM BKN004 07/07 A3024 RMK AO2

Runways

Designator Length Width Surface Rops
4/22 643 23 GRVL-G No/No
11/29 911 30 GRVL-E No/No

Airport map

Aerial View

SKYbrary Partners:

Safety knowledge contributed by: